Terminal Aerodrome Forecast
Issued by NWS

Home | Current Version | Previous Version | Text Only | Print | Product List | Glossary On
Versions: 1 2 3 4 5 6 7 8 9 10 11 12 13 14 15 16 17 18 19 20 21 22 23 24 25
000
FTUS42 KMFL 251720
TAFOPF
TAF
KOPF 251720Z 2518/2618 01011KT P6SM FEW035
     FM260200 35005KT P6SM SKC
     FM260600 34004KT P6SM FEW250
     FM261200 01007KT P6SM SKC=

USA.gov is the U.S. government's official web portal to all federal, state and local government web resources and services.